Time;durP1;ratioP1;P1;durP2;ratioP2;P2;SDS_P1;SDS_P2;PMS_P1;PMS_P2;Temp;Humidity;BMP_temperature;BMP_pressure;BME280_temperature;BME280_humidity;BME280_pressure;Samples;Min_cycle;Max_cycle;Signal;HPM_P1;HPM_P2
2022/03/02 03:19:50;;;;;;;25.50;17.45;;;5.80;99.90;;;;;;5109718;22;20243;-81
2022/03/02 03:22:17;;;;;;;25.10;18.08;;;5.70;99.90;;;;;;5069560;28;20196;-80
2022/03/02 03:24:44;;;;;;;28.90;18.50;;;5.70;99.90;;;;;;5070602;28;20204;-80
2022/03/02 03:27:11;;;;;;;28.63;18.13;;;5.70;99.90;;;;;;5069854;28;20271;-81
2022/03/02 03:29:38;;;;;;;32.53;18.92;;;5.60;99.90;;;;;;5070670;28;20232;-81
2022/03/02 03:32:07;;;;;;;32.55;19.30;;;5.60;99.90;;;;;;5070428;28;20204;-82
2022/03/02 03:34:34;;;;;;;23.63;16.95;;;5.60;99.90;;;;;;5074381;28;20220;-82
2022/03/02 03:37:02;;;;;;;28.60;19.38;;;5.50;99.90;;;;;;5067326;28;20687;-82
2022/03/02 03:39:29;;;;;;;27.20;18.77;;;5.50;99.90;;;;;;5071662;28;20239;-80
2022/03/02 03:41:58;;;;;;;29.15;19.15;;;5.50;99.90;;;;;;5071666;28;20291;-83
2022/03/02 03:44:24;;;;;;;25.83;19.35;;;5.50;99.90;;;;;;5071375;28;20204;-82
2022/03/02 03:46:51;;;;;;;27.48;18.98;;;5.50;99.90;;;;;;5063770;28;20290;-81
2022/03/02 03:49:18;;;;;;;27.67;18.48;;;5.40;99.90;;;;;;5073910;28;20269;-82
2022/03/02 03:51:46;;;;;;;31.02;19.60;;;5.40;99.90;;;;;;5071333;28;20196;-82
2022/03/02 03:54:15;;;;;;;25.38;17.30;;;5.40;99.90;;;;;;5070039;28;20221;-83
2022/03/02 03:56:42;;;;;;;27.83;20.33;;;5.40;99.90;;;;;;5067627;28;20263;-81
2022/03/02 03:59:09;;;;;;;25.00;17.67;;;5.60;99.90;;;;;;5069106;28;20216;-82
2022/03/02 04:01:36;;;;;;;28.17;18.27;;;5.40;99.90;;;;;;5068667;28;20207;-82
2022/03/02 04:04:03;;;;;;;28.00;19.27;;;5.30;99.90;;;;;;5063164;28;20268;-80
2022/03/02 04:06:30;;;;;;;24.65;17.50;;;5.30;99.90;;;;;;5070230;28;20243;-83
2022/03/02 04:08:57;;;;;;;30.85;20.33;;;5.20;99.90;;;;;;5076379;28;20239;-82
2022/03/02 04:11:25;;;;;;;22.40;16.92;;;5.10;99.90;;;;;;5072987;28;20200;-80
2022/03/02 04:13:53;;;;;;;24.35;17.50;;;5.20;99.90;;;;;;5077752;28;20362;-81
2022/03/02 04:16:20;;;;;;;28.73;18.02;;;5.10;99.90;;;;;;5073643;28;20204;-80
2022/03/02 04:18:47;;;;;;;30.33;19.35;;;5.10;99.90;;;;;;5071474;28;20318;-79
2022/03/02 04:21:14;;;;;;;28.75;19.23;;;5.00;99.90;;;;;;5069914;28;20271;-82
2022/03/02 04:23:41;;;;;;;28.33;18.60;;;5.00;99.90;;;;;;5067744;28;20212;-80
2022/03/02 04:26:08;;;;;;;30.40;19.05;;;5.00;99.90;;;;;;5058111;28;20200;-80
2022/03/02 04:28:36;;;;;;;27.75;19.67;;;4.90;99.90;;;;;;5072062;28;20234;-81
2022/03/02 04:31:03;;;;;;;29.30;19.77;;;4.90;99.90;;;;;;5063091;28;20200;-81
2022/03/02 04:33:30;;;;;;;29.77;19.38;;;4.90;99.90;;;;;;5067946;28;20204;-81
2022/03/02 04:35:57;;;;;;;35.13;20.20;;;4.90;99.90;;;;;;5064458;28;20578;-81
2022/03/02 04:38:24;;;;;;;30.33;19.63;;;4.90;99.90;;;;;;5070958;28;20199;-81
2022/03/02 04:40:51;;;;;;;28.52;17.90;;;4.90;99.90;;;;;;5077933;28;20188;-81
2022/03/02 04:43:18;;;;;;;27.08;18.70;;;4.80;99.90;;;;;;5073959;28;20291;-81
2022/03/02 04:45:46;;;;;;;29.58;19.30;;;4.80;99.90;;;;;;5078445;28;20191;-81
2022/03/02 04:48:13;;;;;;;30.55;19.00;;;4.70;99.90;;;;;;5076868;28;20230;-81
2022/03/02 04:50:40;;;;;;;27.33;17.80;;;4.60;99.90;;;;;;5077810;28;20219;-81
2022/03/02 04:53:07;;;;;;;26.35;18.40;;;4.70;99.90;;;;;;5070413;28;20263;-81
2022/03/02 04:55:34;;;;;;;28.25;18.80;;;4.50;99.90;;;;;;5075053;28;20192;-81
2022/03/02 04:58:02;;;;;;;30.42;21.02;;;4.50;99.90;;;;;;5072395;28;20275;-82
2022/03/02 05:00:31;;;;;;;25.38;18.98;;;4.50;99.90;;;;;;5072970;28;20227;-81
2022/03/02 05:03:00;;;;;;;27.80;18.40;;;4.40;99.90;;;;;;5073099;28;20907;-82
2022/03/02 05:05:29;;;;;;;31.58;19.30;;;4.40;99.90;;;;;;5073242;28;20206;-82
2022/03/02 05:07:56;;;;;;;28.98;18.67;;;4.40;99.90;;;;;;5072707;28;20203;-81
2022/03/02 05:10:24;;;;;;;27.05;18.25;;;4.70;99.90;;;;;;5074648;28;20231;-81
2022/03/02 05:12:52;;;;;;;28.42;19.73;;;4.50;99.90;;;;;;5074585;28;20263;-82
2022/03/02 05:15:20;;;;;;;28.40;18.80;;;4.50;99.90;;;;;;5074836;28;20234;-82
2022/03/02 05:17:48;;;;;;;28.48;18.90;;;4.50;99.90;;;;;;5074576;28;20196;-80
2022/03/02 05:20:18;;;;;;;29.05;18.27;;;4.60;99.90;;;;;;5074707;28;20709;-82
2022/03/02 05:22:45;;;;;;;26.92;18.25;;;4.50;99.90;;;;;;5069910;28;20204;-81
2022/03/02 05:25:13;;;;;;;33.83;20.13;;;4.50;99.90;;;;;;5067024;28;20274;-82
2022/03/02 05:27:41;;;;;;;27.30;18.70;;;4.50;99.90;;;;;;5067696;28;20203;-81
2022/03/02 05:30:10;;;;;;;27.23;18.02;;;4.40;99.90;;;;;;5066058;28;20227;-81
2022/03/02 05:32:37;;;;;;;31.00;19.30;;;4.40;99.90;;;;;;5068327;28;20286;-83
2022/03/02 05:35:06;;;;;;;29.67;19.27;;;4.30;99.90;;;;;;5066761;28;20893;-82
2022/03/02 05:37:34;;;;;;;31.75;20.27;;;4.20;99.90;;;;;;5066683;28;20211;-82
2022/03/02 05:40:02;;;;;;;31.33;19.42;;;4.10;99.90;;;;;;5070334;28;20223;-82
2022/03/02 05:42:29;;;;;;;37.13;20.42;;;4.30;99.90;;;;;;5071103;28;20192;-83
2022/03/02 05:44:55;;;;;;;33.17;19.40;;;4.10;99.90;;;;;;5069508;28;20286;-81
2022/03/02 05:47:22;;;;;;;29.08;18.98;;;4.10;99.90;;;;;;5068409;28;20235;-81
2022/03/02 05:49:50;;;;;;;27.42;18.48;;;4.20;99.90;;;;;;5067156;28;20258;-82
2022/03/02 05:52:18;;;;;;;34.80;20.60;;;4.00;99.90;;;;;;5065887;28;20222;-83
2022/03/02 05:54:46;;;;;;;27.48;20.33;;;4.00;99.90;;;;;;5067953;28;20302;-82
2022/03/02 05:57:13;;;;;;;25.63;19.58;;;4.20;99.90;;;;;;5069845;28;20234;-82
2022/03/02 05:59:40;;;;;;;27.17;18.85;;;4.10;99.90;;;;;;5067300;28;20302;-82
2022/03/02 06:02:07;;;;;;;30.73;18.90;;;4.10;99.90;;;;;;5065860;28;20196;-81
2022/03/02 06:04:34;;;;;;;34.90;20.80;;;4.00;99.90;;;;;;5067457;28;20212;-81
2022/03/02 06:07:02;;;;;;;26.35;18.73;;;4.00;99.90;;;;;;5066161;28;20231;-81
2022/03/02 06:09:29;;;;;;;32.25;19.80;;;4.00;99.90;;;;;;5065963;28;20223;-80
2022/03/02 06:11:58;;;;;;;30.45;21.20;;;3.90;99.90;;;;;;5064623;28;20572;-80
2022/03/02 06:14:25;;;;;;;30.08;20.15;;;3.90;99.90;;;;;;5064192;28;20215;-80
2022/03/02 06:16:53;;;;;;;27.70;19.83;;;4.00;99.90;;;;;;5060643;28;20294;-82
2022/03/02 06:19:20;;;;;;;28.13;19.02;;;3.90;99.90;;;;;;5065284;28;20254;-81
2022/03/02 06:21:48;;;;;;;29.30;20.10;;;4.00;99.90;;;;;;5070866;28;20267;-82
2022/03/02 06:24:15;;;;;;;31.92;20.92;;;4.00;99.90;;;;;;5063765;28;20203;-82
2022/03/02 06:26:43;;;;;;;30.98;20.63;;;4.00;99.90;;;;;;5062449;28;20196;-81
2022/03/02 06:29:11;;;;;;;30.15;19.38;;;3.90;99.90;;;;;;5067697;28;20529;-81
2022/03/02 06:31:40;;;;;;;32.17;20.38;;;4.20;99.90;;;;;;5068587;28;20199;-80
2022/03/02 06:34:07;;;;;;;30.88;19.23;;;4.00;99.90;;;;;;5068221;28;20222;-81
2022/03/02 06:36:34;;;;;;;31.10;21.15;;;4.00;99.90;;;;;;5068836;28;20237;-82
2022/03/02 06:39:00;;;;;;;32.08;21.02;;;4.10;99.90;;;;;;5056027;28;20748;-83
2022/03/02 06:41:31;;;;;;;26.95;19.88;;;4.10;99.90;;;;;;5067149;28;20226;-83
2022/03/02 06:44:03;;;;;;;32.95;21.05;;;4.00;99.90;;;;;;5074788;28;20226;-82
2022/03/02 06:46:44;;;;;;;33.80;23.58;;;3.90;99.90;;;;;;5071011;28;20455;-80
2022/03/02 06:49:21;;;;;;;34.92;22.58;;;4.00;99.90;;;;;;5055762;28;20337;-81
2022/03/02 06:51:48;;;;;;;31.15;19.35;;;4.00;99.90;;;;;;5053328;28;20271;-66
2022/03/02 06:54:19;;;;;;;31.52;20.13;;;4.00;99.90;;;;;;5054668;28;20207;-66
2022/03/02 06:56:49;;;;;;;31.70;19.85;;;4.10;99.90;;;;;;5056744;28;20207;-65
2022/03/02 06:59:23;;;;;;;32.63;21.27;;;4.20;99.90;;;;;;5055348;28;20235;-66
2022/03/02 07:01:53;;;;;;;27.00;18.42;;;4.30;99.90;;;;;;5054295;28;20203;-66
2022/03/02 07:04:22;;;;;;;31.58;23.15;;;4.50;99.90;;;;;;5055446;28;20207;-65
2022/03/02 07:06:49;;;;;;;31.17;19.95;;;4.60;99.90;;;;;;5055246;28;20231;-65
2022/03/02 07:09:17;;;;;;;27.02;18.75;;;5.00;99.90;;;;;;5057563;28;20231;-64
2022/03/02 07:11:44;;;;;;;25.00;16.10;;;5.90;99.90;;;;;;5054248;28;20214;-65
2022/03/02 07:14:15;;;;;;;25.48;17.63;;;6.70;99.90;;;;;;5055112;28;20203;-65
2022/03/02 07:16:43;;;;;;;27.90;17.80;;;7.60;99.90;;;;;;5055721;28;20207;-65
2022/03/02 07:19:12;;;;;;;24.42;18.23;;;8.30;99.90;;;;;;5058429;28;20223;-65
2022/03/02 07:21:45;;;;;;;24.08;17.27;;;9.00;99.90;;;;;;5060242;28;20265;-65
2022/03/02 07:24:17;;;;;;;25.63;17.20;;;9.80;99.70;;;;;;5063657;28;20204;-65
2022/03/02 07:26:46;;;;;;;24.75;18.05;;;10.70;96.60;;;;;;5062763;28;20217;-66
2022/03/02 07:29:15;;;;;;;27.42;18.90;;;11.90;94.20;;;;;;5050586;28;20223;-66
2022/03/02 07:31:43;;;;;;;27.17;16.25;;;12.40;90.80;;;;;;5064472;28;20207;-67
2022/03/02 07:34:14;;;;;;;21.80;16.27;;;13.10;89.40;;;;;;5054085;28;20207;-66
2022/03/02 07:36:41;;;;;;;24.85;16.58;;;13.90;85.50;;;;;;5061349;28;20199;-67
2022/03/02 07:39:09;;;;;;;24.63;18.60;;;14.20;82.50;;;;;;5059938;28;20225;-67
2022/03/02 07:41:36;;;;;;;24.53;17.67;;;14.70;80.70;;;;;;5057042;28;20228;-66
2022/03/02 07:44:04;;;;;;;21.77;16.13;;;15.20;79.30;;;;;;5052496;28;20450;-67
2022/03/02 07:46:32;;;;;;;21.93;17.20;;;15.80;77.00;;;;;;5053492;28;20462;-67
2022/03/02 07:49:00;;;;;;;21.10;17.03;;;16.30;75.50;;;;;;5055510;28;20465;-66
2022/03/02 07:51:28;;;;;;;24.37;18.07;;;16.30;80.90;;;;;;5053844;28;20583;-67
2022/03/02 07:54:00;;;;;;;23.13;15.47;;;16.50;84.70;;;;;;5054485;28;20464;-68
2022/03/02 07:56:29;;;;;;;24.40;16.53;;;16.80;85.40;;;;;;5054668;28;20454;-68
2022/03/02 07:59:01;;;;;;;21.60;16.83;;;17.20;81.70;;;;;;5046276;28;20477;-67
2022/03/02 08:01:28;;;;;;;24.53;18.67;;;17.20;79.80;;;;;;5044437;28;20442;-67
2022/03/02 08:03:58;;;;;;;23.00;17.70;;;17.40;76.60;;;;;;5038535;28;20445;-67
2022/03/02 08:06:25;;;;;;;21.87;16.90;;;17.20;74.90;;;;;;5047078;28;20446;-68
2022/03/02 08:08:55;;;;;;;19.17;16.03;;;17.40;73.80;;;;;;5041703;28;20843;-66
2022/03/02 08:11:22;;;;;;;20.43;16.50;;;17.80;74.00;;;;;;5043073;28;20482;-67
2022/03/02 08:13:49;;;;;;;21.03;16.93;;;18.00;71.80;;;;;;5045696;28;20446;-68
2022/03/02 08:16:17;;;;;;;24.60;19.33;;;18.10;71.30;;;;;;5050843;28;20464;-66
2022/03/02 08:18:44;;;;;;;23.10;17.50;;;18.20;69.40;;;;;;5053987;28;20516;-68
2022/03/02 08:21:17;;;;;;;20.13;16.37;;;18.60;68.50;;;;;;5051756;28;20447;-68
2022/03/02 08:23:45;;;;;;;23.60;17.97;;;19.10;67.10;;;;;;5050930;28;20498;-67
2022/03/02 08:26:18;;;;;;;32.87;20.23;;;19.00;65.60;;;;;;5051431;28;20447;-68
2022/03/02 08:28:46;;;;;;;29.20;17.33;;;19.10;65.40;;;;;;5046237;28;20458;-67
2022/03/02 08:31:14;;;;;;;25.10;17.20;;;19.30;66.40;;;;;;5050459;28;20497;-68
2022/03/02 08:33:42;;;;;;;21.17;17.10;;;19.50;64.90;;;;;;5050734;28;20457;-67
2022/03/02 08:36:10;;;;;;;23.90;17.37;;;19.30;63.20;;;;;;5048750;28;20446;-67
2022/03/02 08:38:42;;;;;;;23.50;17.67;;;19.30;61.90;;;;;;5050536;28;20470;-67
2022/03/02 08:41:10;;;;;;;19.83;15.80;;;19.30;60.80;;;;;;5047746;28;20446;-67
2022/03/02 08:43:39;;;;;;;20.30;15.97;;;19.30;60.40;;;;;;5054150;28;20929;-68
2022/03/02 10:57:03;;;;;;;23.40;16.52;;;16.50;54.10;;;;;;4825595;29;20224;-85
2022/03/02 11:07:05;;;;;;;19.42;13.60;;;14.90;56.30;;;;;;4926438;29;20208;-84
2022/03/02 11:13:17;;;;;;;19.40;14.05;;;14.30;56.80;;;;;;4956129;28;20225;-84
2022/03/02 15:20:11;;;;;;;19.65;14.85;;;11.30;71.70;;;;;;5076613;22;20227;-81
2022/03/02 15:22:40;;;;;;;26.80;16.58;;;11.30;71.60;;;;;;5077799;28;20178;-80
2022/03/02 15:25:10;;;;;;;24.85;14.82;;;11.30;71.70;;;;;;5078584;28;20195;-81
2022/03/02 15:27:38;;;;;;;19.90;14.73;;;11.30;71.60;;;;;;5078459;28;20194;-81
2022/03/02 15:30:13;;;;;;;24.70;15.25;;;11.20;71.60;;;;;;5076873;28;21295;-78
2022/03/02 15:32:41;;;;;;;23.38;14.15;;;11.10;71.30;;;;;;5098766;28;20184;-80
2022/03/02 15:35:12;;;;;;;17.27;13.50;;;11.00;71.60;;;;;;5094988;28;20209;-79
2022/03/02 15:37:46;;;;;;;17.67;12.38;;;11.00;70.80;;;;;;5094164;28;20200;-79
2022/03/02 15:40:16;;;;;;;20.40;14.40;;;10.90;71.10;;;;;;5093980;28;20224;-80
2022/03/02 15:42:45;;;;;;;17.83;13.25;;;10.90;71.20;;;;;;5092673;28;20217;-82
2022/03/02 15:45:16;;;;;;;21.88;13.82;;;10.80;71.30;;;;;;5093190;28;20202;-80
2022/03/02 15:47:48;;;;;;;19.10;14.07;;;10.80;71.80;;;;;;5092924;28;20215;-82
2022/03/02 15:50:18;;;;;;;20.92;15.10;;;10.80;72.10;;;;;;5091559;28;20232;-78
2022/03/02 15:52:47;;;;;;;20.42;15.13;;;10.90;72.90;;;;;;5098325;28;20193;-80
2022/03/02 15:55:16;;;;;;;21.33;14.23;;;10.80;73.20;;;;;;5096671;28;20196;-82
2022/03/02 15:57:54;;;;;;;19.23;13.95;;;10.70;73.00;;;;;;5091883;28;20200;-82
2022/03/02 16:00:25;;;;;;;18.00;13.45;;;10.70;73.00;;;;;;5090483;28;20267;-84
2022/03/02 16:02:54;;;;;;;20.52;13.48;;;10.70;72.30;;;;;;5089562;28;20208;-82
2022/03/02 16:05:28;;;;;;;17.77;12.95;;;10.60;72.40;;;;;;5091755;28;20214;-83
2022/03/02 16:08:01;;;;;;;20.30;13.73;;;10.50;73.00;;;;;;5089176;28;20649;-82
2022/03/02 16:10:29;;;;;;;16.48;11.88;;;10.50;73.60;;;;;;5088323;28;20306;-82
2022/03/02 16:12:56;;;;;;;19.73;14.30;;;10.60;73.30;;;;;;5086495;28;20224;-83
2022/03/02 16:15:40;;;;;;;24.73;14.05;;;10.50;73.20;;;;;;5090690;28;20210;-81
2022/03/02 16:18:08;;;;;;;18.35;12.52;;;10.40;73.10;;;;;;5090611;28;20664;-82
2022/03/02 16:20:37;;;;;;;18.35;14.07;;;10.40;72.60;;;;;;5090555;28;20236;-82
2022/03/02 16:23:09;;;;;;;19.17;13.80;;;10.40;72.50;;;;;;5092615;28;20204;-80
2022/03/02 16:25:43;;;;;;;17.40;12.48;;;10.40;72.60;;;;;;5092557;28;20201;-83
2022/03/02 16:28:11;;;;;;;20.60;13.52;;;10.30;73.50;;;;;;5081987;28;20306;-80
2022/03/02 16:30:40;;;;;;;20.45;14.20;;;10.20;73.40;;;;;;5092969;28;20233;-79
2022/03/02 16:33:08;;;;;;;19.45;14.00;;;10.30;74.10;;;;;;5091679;28;20219;-80
2022/03/02 16:35:38;;;;;;;17.52;13.20;;;10.10;74.30;;;;;;5090880;28;20200;-82
2022/03/02 16:38:06;;;;;;;24.67;14.18;;;10.10;74.80;;;;;;5092325;28;20235;-81
2022/03/02 16:40:34;;;;;;;18.08;13.00;;;10.00;75.10;;;;;;5087294;28;20218;-83
2022/03/02 16:43:02;;;;;;;17.85;12.25;;;10.00;75.10;;;;;;5091915;28;20215;-82
2022/03/02 16:45:29;;;;;;;18.50;13.25;;;9.90;76.00;;;;;;5094209;28;20397;-82
2022/03/02 16:47:57;;;;;;;18.20;13.65;;;9.90;76.20;;;;;;5083954;28;20207;-82
2022/03/02 16:50:25;;;;;;;21.02;14.23;;;9.80;76.60;;;;;;5088292;28;20260;-82
2022/03/02 16:52:54;;;;;;;16.70;12.90;;;9.80;76.20;;;;;;5088173;28;20226;-82
2022/03/02 16:55:22;;;;;;;18.80;12.80;;;9.90;76.30;;;;;;5090730;28;20262;-81
2022/03/02 16:57:50;;;;;;;17.35;11.75;;;9.80;76.00;;;;;;5085036;28;20251;-82
2022/03/02 17:00:21;;;;;;;17.00;13.13;;;9.70;76.30;;;;;;5095311;28;20210;-81
2022/03/02 17:02:49;;;;;;;18.45;13.95;;;9.70;76.60;;;;;;5093490;28;20207;-80
2022/03/02 17:05:17;;;;;;;16.10;12.82;;;9.60;76.80;;;;;;5090864;28;20199;-81
2022/03/02 17:07:45;;;;;;;16.75;11.48;;;9.60;77.30;;;;;;5085401;28;20251;-81
2022/03/02 17:10:13;;;;;;;18.45;12.75;;;9.50;77.50;;;;;;5095457;28;20207;-82
2022/03/02 17:12:42;;;;;;;18.35;13.40;;;9.50;77.60;;;;;;5095753;28;20473;-81
2022/03/02 17:15:10;;;;;;;19.10;12.30;;;9.50;77.90;;;;;;5088555;28;20194;-80
2022/03/02 17:17:38;;;;;;;20.02;15.50;;;9.40;78.30;;;;;;5094321;28;20191;-81
2022/03/02 17:20:08;;;;;;;22.02;14.55;;;9.40;78.60;;;;;;5086516;28;20230;-79
2022/03/02 17:22:35;;;;;;;19.25;12.82;;;9.40;78.90;;;;;;5094004;28;20239;-81
2022/03/02 17:25:03;;;;;;;23.42;15.02;;;9.30;79.30;;;;;;5099425;28;20183;-79
2022/03/02 17:27:31;;;;;;;20.67;13.40;;;9.30;79.70;;;;;;5093734;28;20234;-83
2022/03/02 17:29:59;;;;;;;21.60;16.27;;;9.20;80.40;;;;;;5090305;28;20228;-83
2022/03/02 17:32:26;;;;;;;20.85;13.80;;;9.10;80.90;;;;;;5091475;28;20210;-82
2022/03/02 17:34:53;;;;;;;21.30;14.48;;;9.20;81.60;;;;;;5090136;28;20287;-83
2022/03/02 17:37:22;;;;;;;23.05;14.13;;;9.00;82.30;;;;;;5089399;28;20493;-82
2022/03/02 17:39:50;;;;;;;20.77;14.02;;;9.20;82.80;;;;;;5089605;28;20227;-82
2022/03/02 17:42:19;;;;;;;19.50;14.02;;;9.00;83.00;;;;;;5088481;28;20289;-82
2022/03/02 17:44:49;;;;;;;23.20;14.60;;;8.90;83.20;;;;;;5094769;28;20209;-81
2022/03/02 17:47:16;;;;;;;22.40;14.65;;;8.90;83.80;;;;;;5093741;28;20195;-84
2022/03/02 17:49:43;;;;;;;21.20;15.35;;;8.80;84.90;;;;;;5090216;28;20310;-83
2022/03/02 17:52:10;;;;;;;26.13;14.25;;;8.70;84.70;;;;;;5092109;28;20231;-83
2022/03/02 17:54:37;;;;;;;16.83;13.00;;;8.70;85.50;;;;;;5091285;28;20230;-82
2022/03/02 17:57:04;;;;;;;20.05;14.90;;;8.70;85.80;;;;;;5078354;28;20227;-83
2022/03/02 17:59:31;;;;;;;17.85;13.55;;;8.60;86.00;;;;;;5083048;28;20231;-82
2022/03/02 18:02:00;;;;;;;21.65;14.43;;;8.50;86.50;;;;;;5088354;28;20238;-82
2022/03/02 18:04:27;;;;;;;29.52;16.60;;;8.50;87.20;;;;;;5094065;28;20202;-81
2022/03/02 18:06:54;;;;;;;28.67;16.20;;;8.50;87.20;;;;;;5090323;28;20269;-82
2022/03/02 18:09:21;;;;;;;23.52;16.08;;;8.50;87.20;;;;;;5092770;28;20227;-82
2022/03/02 18:11:48;;;;;;;23.45;13.85;;;8.40;87.70;;;;;;5090578;28;20257;-81
2022/03/02 18:14:16;;;;;;;20.85;14.80;;;8.20;87.40;;;;;;5092796;28;20237;-81
2022/03/02 18:16:45;;;;;;;23.40;16.08;;;8.30;87.80;;;;;;5092422;28;20202;-83
2022/03/02 18:19:15;;;;;;;22.77;16.25;;;8.30;88.00;;;;;;5095171;28;20210;-81
2022/03/02 18:21:43;;;;;;;24.80;13.60;;;8.20;88.70;;;;;;5097461;28;20194;-81
2022/03/02 18:24:12;;;;;;;23.77;16.42;;;8.20;89.30;;;;;;5095753;28;20206;-81
2022/03/02 18:26:44;;;;;;;21.30;15.52;;;8.10;89.80;;;;;;5090694;28;20282;-82
2022/03/02 18:29:12;;;;;;;25.13;17.27;;;8.10;90.20;;;;;;5094512;28;20203;-82
2022/03/02 18:31:40;;;;;;;26.05;18.40;;;8.10;90.10;;;;;;5094557;28;20226;-81
2022/03/02 18:34:07;;;;;;;21.00;16.80;;;8.00;90.20;;;;;;5091821;28;20191;-83
2022/03/02 18:36:37;;;;;;;24.20;16.83;;;7.90;90.50;;;;;;5091354;28;20210;-82
2022/03/02 18:39:13;;;;;;;21.55;15.95;;;7.70;90.40;;;;;;5086315;28;20187;-81
2022/03/02 18:41:40;;;;;;;23.23;15.55;;;7.80;91.00;;;;;;5099528;28;20183;-84
2022/03/02 18:44:09;;;;;;;24.70;17.10;;;7.80;90.90;;;;;;5095638;28;20197;-81
2022/03/02 18:46:36;;;;;;;23.40;16.83;;;7.70;91.10;;;;;;5097586;28;20220;-83
2022/03/02 18:49:03;;;;;;;26.83;16.15;;;7.70;91.10;;;;;;5091906;28;20206;-82
2022/03/02 18:51:30;;;;;;;23.83;16.40;;;7.90;91.20;;;;;;5091967;28;20367;-84
2022/03/02 18:53:59;;;;;;;22.83;15.75;;;7.80;91.20;;;;;;5081920;28;20203;-81
2022/03/02 18:56:26;;;;;;;24.48;16.75;;;7.70;91.30;;;;;;5090837;28;20236;-81
2022/03/02 18:58:53;;;;;;;25.25;17.10;;;7.60;91.50;;;;;;5091908;28;20199;-81
2022/03/02 19:01:21;;;;;;;21.27;14.25;;;7.60;91.60;;;;;;5092897;28;20237;-79
2022/03/02 19:03:49;;;;;;;26.70;17.00;;;7.60;91.70;;;;;;5092355;28;20224;-81
2022/03/02 19:06:16;;;;;;;21.25;16.55;;;7.60;91.90;;;;;;5094216;28;20199;-81
2022/03/02 19:08:44;;;;;;;21.88;16.00;;;7.50;92.20;;;;;;5094899;28;20198;-79
2022/03/02 19:11:12;;;;;;;25.98;16.95;;;7.50;92.40;;;;;;5095785;28;20246;-79
2022/03/02 19:13:39;;;;;;;28.45;18.20;;;7.40;93.10;;;;;;5113653;28;20206;-81
2022/03/02 19:16:07;;;;;;;23.73;17.55;;;7.40;92.50;;;;;;5093180;28;20189;-80
2022/03/02 19:18:41;;;;;;;27.52;19.42;;;7.30;92.40;;;;;;5096626;28;20198;-83
2022/03/02 19:21:21;;;;;;;24.80;18.92;;;7.30;92.30;;;;;;5097943;28;20315;-80
2022/03/02 19:23:52;;;;;;;26.38;18.45;;;7.20;92.20;;;;;;5093788;28;20225;-83
2022/03/02 19:26:22;;;;;;;29.80;18.90;;;7.20;92.50;;;;;;5095144;28;20265;-82
2022/03/02 19:28:51;;;;;;;29.05;20.05;;;7.30;92.80;;;;;;5095565;28;20591;-82
2022/03/02 19:31:19;;;;;;;33.15;20.35;;;7.10;92.90;;;;;;5094640;28;20225;-80
2022/03/02 19:33:47;;;;;;;30.13;19.58;;;7.10;93.20;;;;;;5096346;28;20226;-84
2022/03/02 19:36:14;;;;;;;27.85;19.60;;;7.10;93.20;;;;;;5095934;28;20210;-81
2022/03/02 19:41:28;;;;;;;28.67;18.90;;;6.90;93.50;;;;;;5085463;28;20221;-82
2022/03/02 19:43:55;;;;;;;25.80;18.80;;;6.90;93.70;;;;;;5090130;28;20209;-82
2022/03/02 19:46:32;;;;;;;31.83;20.65;;;6.80;93.80;;;;;;5092848;28;20226;-83
2022/03/02 19:49:01;;;;;;;32.10;20.80;;;6.80;93.70;;;;;;5093354;28;20204;-83
2022/03/02 19:51:31;;;;;;;30.02;21.67;;;6.70;93.80;;;;;;5090212;28;20208;-81
2022/03/02 19:53:59;;;;;;;32.85;20.25;;;6.70;93.80;;;;;;5098673;28;20227;-80
2022/03/02 19:56:28;;;;;;;28.20;21.17;;;6.80;94.00;;;;;;5098535;28;20179;-80
2022/03/02 19:58:59;;;;;;;32.72;19.80;;;6.70;94.00;;;;;;5098971;28;20196;-82
2022/03/02 20:01:26;;;;;;;29.52;20.10;;;6.60;94.30;;;;;;5098951;28;20177;-80
2022/03/02 20:03:53;;;;;;;27.25;20.35;;;6.60;94.50;;;;;;5097404;28;20207;-81
2022/03/02 20:06:20;;;;;;;31.17;23.02;;;6.60;94.10;;;;;;5088293;28;20188;-82
2022/03/02 20:08:48;;;;;;;29.23;19.90;;;6.70;94.40;;;;;;5089793;28;20215;-83
2022/03/02 20:11:21;;;;;;;29.05;19.15;;;6.50;94.30;;;;;;5086400;28;20237;-81
2022/03/02 20:13:51;;;;;;;29.23;19.48;;;6.50;94.40;;;;;;5089880;28;20204;-80
2022/03/02 20:16:21;;;;;;;27.80;18.00;;;6.40;94.50;;;;;;5090728;28;20223;-80
2022/03/02 20:18:49;;;;;;;28.27;19.63;;;6.30;94.80;;;;;;5088916;28;20230;-82
2022/03/02 20:21:15;;;;;;;34.45;22.48;;;6.30;95.00;;;;;;5084827;28;20228;-81
2022/03/02 20:23:42;;;;;;;34.35;21.52;;;6.10;95.50;;;;;;5084882;28;20223;-81
2022/03/02 20:26:09;;;;;;;35.97;23.02;;;6.10;95.60;;;;;;5075707;28;20271;-81
2022/03/02 20:28:36;;;;;;;26.35;18.25;;;6.10;95.70;;;;;;5091686;28;20292;-81
2022/03/02 20:31:05;;;;;;;25.08;18.52;;;6.10;95.80;;;;;;5082210;28;20322;-83
2022/03/02 20:33:32;;;;;;;25.08;20.48;;;6.10;95.80;;;;;;5086588;28;20295;-84
2022/03/02 20:35:59;;;;;;;30.45;20.67;;;6.00;95.80;;;;;;5091637;28;20208;-82
2022/03/02 20:38:28;;;;;;;32.25;21.90;;;6.00;96.00;;;;;;5091495;28;20204;-82
2022/03/02 20:40:56;;;;;;;29.55;19.90;;;6.00;96.00;;;;;;5092524;28;20215;-82
2022/03/02 20:43:40;;;;;;;33.13;21.00;;;6.00;96.10;;;;;;5093531;28;20199;-84
2022/03/02 20:46:08;;;;;;;28.70;20.58;;;6.00;96.10;;;;;;5098439;28;20203;-83
2022/03/02 20:48:36;;;;;;;25.95;18.65;;;6.10;96.10;;;;;;5097873;28;20263;-83
2022/03/02 20:51:12;;;;;;;23.95;17.30;;;5.90;96.10;;;;;;5098051;28;20204;-79
2022/03/02 20:53:39;;;;;;;28.50;18.55;;;6.10;96.20;;;;;;5097978;28;20212;-82
2022/03/02 20:56:08;;;;;;;28.40;19.90;;;6.00;96.20;;;;;;5097967;28;20192;-81
2022/03/02 21:01:25;;;;;;;26.92;18.90;;;5.80;96.50;;;;;;5077293;28;20172;-78
2022/03/02 21:03:53;;;;;;;32.97;20.17;;;5.80;96.30;;;;;;5087984;28;20261;-80
2022/03/02 21:06:22;;;;;;;29.83;20.00;;;5.80;96.40;;;;;;5097673;28;20179;-80
2022/03/02 21:08:49;;;;;;;24.48;18.25;;;5.80;96.50;;;;;;5097108;28;20203;-79
2022/03/02 21:11:16;;;;;;;24.80;17.83;;;5.90;96.50;;;;;;5091840;28;20230;-81
2022/03/02 21:13:43;;;;;;;31.50;18.10;;;5.70;96.30;;;;;;5092618;28;20287;-82
2022/03/02 21:16:10;;;;;;;31.08;19.50;;;5.70;96.50;;;;;;5091372;28;20216;-82
2022/03/02 21:18:38;;;;;;;37.80;18.77;;;5.70;96.70;;;;;;5087419;28;20306;-81
2022/03/02 21:21:10;;;;;;;26.40;19.35;;;5.70;96.60;;;;;;5084372;28;20313;-84
2022/03/02 21:23:37;;;;;;;28.15;19.95;;;5.70;96.50;;;;;;5091973;28;20221;-79
2022/03/02 21:26:07;;;;;;;27.55;19.00;;;5.60;96.60;;;;;;5082199;28;20179;-81
2022/03/02 21:28:37;;;;;;;22.88;17.67;;;5.60;96.60;;;;;;5085065;28;20203;-83
2022/03/02 21:31:04;;;;;;;28.60;19.23;;;5.60;96.40;;;;;;5080195;28;20222;-81
2022/03/02 21:33:31;;;;;;;28.15;19.40;;;5.60;96.50;;;;;;5081623;28;20215;-82
2022/03/02 21:36:00;;;;;;;30.92;19.65;;;5.50;96.60;;;;;;5084492;28;20205;-83
2022/03/02 21:38:27;;;;;;;33.78;20.95;;;5.40;96.80;;;;;;5078427;28;21402;-82
2022/03/02 21:40:56;;;;;;;25.13;18.30;;;5.40;96.90;;;;;;5084877;28;20251;-81
2022/03/02 21:43:23;;;;;;;33.08;19.70;;;5.40;96.90;;;;;;5085842;28;20239;-80
2022/03/02 21:45:50;;;;;;;28.30;18.77;;;5.40;96.90;;;;;;5082367;28;20254;-84
2022/03/02 21:48:17;;;;;;;27.85;18.90;;;5.30;96.90;;;;;;5081038;28;20231;-81
2022/03/02 21:50:44;;;;;;;29.77;20.40;;;5.40;97.10;;;;;;5084429;28;20219;-82
2022/03/02 21:53:12;;;;;;;32.38;18.85;;;5.30;96.90;;;;;;5083791;28;20278;-81
2022/03/02 21:55:39;;;;;;;27.70;20.08;;;5.30;97.00;;;;;;5088437;28;20282;-80
2022/03/02 21:58:06;;;;;;;25.10;17.90;;;5.20;97.10;;;;;;5096910;28;20202;-79
2022/03/02 22:00:33;;;;;;;31.08;20.40;;;5.20;96.90;;;;;;5096517;28;20227;-80
2022/03/02 22:03:00;;;;;;;25.52;17.27;;;5.30;96.80;;;;;;5096994;28;20203;-80
2022/03/02 22:05:27;;;;;;;28.38;17.20;;;5.20;96.80;;;;;;5091441;28;20212;-82
2022/03/02 22:07:55;;;;;;;28.42;19.13;;;5.10;96.80;;;;;;5083620;28;20273;-81
2022/03/02 22:10:23;;;;;;;27.13;18.27;;;5.10;97.10;;;;;;5083879;28;20322;-80
2022/03/02 22:12:50;;;;;;;29.30;18.52;;;5.10;97.20;;;;;;5084021;28;20309;-82
2022/03/02 22:15:17;;;;;;;23.00;17.52;;;5.10;97.00;;;;;;5090858;28;20203;-81
2022/03/02 22:17:44;;;;;;;25.58;18.45;;;5.00;97.10;;;;;;5078580;28;20214;-81
2022/03/02 22:20:13;;;;;;;23.73;18.08;;;5.00;97.30;;;;;;5075557;28;20266;-80
2022/03/02 22:22:40;;;;;;;24.63;18.05;;;5.10;97.30;;;;;;5082972;28;20234;-83
2022/03/02 22:25:09;;;;;;;30.35;20.58;;;5.10;97.30;;;;;;5083783;28;20199;-81
2022/03/02 22:27:37;;;;;;;27.75;19.67;;;5.00;97.20;;;;;;5080743;28;20196;-82
2022/03/02 22:30:05;;;;;;;26.17;18.05;;;5.00;97.40;;;;;;5075305;28;20214;-79
2022/03/02 22:32:32;;;;;;;27.10;19.70;;;4.90;97.60;;;;;;5083581;28;20781;-79